Time;durP1;ratioP1;P1;durP2;ratioP2;P2;SDS_P1;SDS_P2;PMS_P1;PMS_P2;Temp;Humidity;BMP_temperature;BMP_pressure;BME280_temperature;BME280_humidity;BME280_pressure;Samples;Min_cycle;Max_cycle;Signal;HPM_P1;HPM_P2
2023/08/11 00:02:26;;;;;;;6.53;4.33;;;;;;;18.51;84.75;101806.94;5262797;28;20044;-78
2023/08/11 00:04:57;;;;;;;6.63;4.17;;;;;;;18.47;85.07;101807.97;5263208;28;20480;-78
2023/08/11 00:07:29;;;;;;;6.07;4.27;;;;;;;18.42;85.30;101816.00;5264679;28;20036;-77
2023/08/11 00:10:00;;;;;;;6.27;4.20;;;;;;;18.33;85.65;101816.28;5263791;28;20033;-78
2023/08/11 00:12:32;;;;;;;7.70;4.03;;;;;;;18.26;86.21;101812.06;5263673;28;20512;-79
2023/08/11 00:15:03;;;;;;;6.43;4.73;;;;;;;18.27;85.98;101804.09;5246226;28;20351;-78
2023/08/11 00:17:35;;;;;;;6.55;4.18;;;;;;;18.15;87.04;101815.88;5263906;28;20424;-79
2023/08/11 00:20:08;;;;;;;4.70;4.20;;;;;;;18.19;86.85;101809.63;5263864;28;20099;-78
2023/08/11 00:22:40;;;;;;;6.80;4.28;;;;;;;18.16;87.02;101806.19;5263883;28;20476;-78
2023/08/11 00:25:11;;;;;;;6.50;4.63;;;;;;;18.01;87.07;101808.34;5264055;28;20048;-79
2023/08/11 00:27:43;;;;;;;6.20;4.33;;;;;;;17.99;86.86;101799.59;5262636;28;20075;-78
2023/08/11 00:30:14;;;;;;;6.70;4.13;;;;;;;17.94;87.17;101804.16;5262696;28;20425;-79
2023/08/11 00:32:46;;;;;;;6.90;5.07;;;;;;;17.82;88.01;101815.00;5263874;28;20126;-79
2023/08/11 00:35:17;;;;;;;5.90;4.27;;;;;;;17.82;88.29;101815.00;5263889;28;20033;-78
2023/08/11 00:37:49;;;;;;;8.50;4.53;;;;;;;17.80;88.67;101815.03;5263943;28;20037;-78
2023/08/11 00:40:22;;;;;;;7.22;4.10;;;;;;;17.77;88.69;101814.25;5262309;28;20025;-78
2023/08/11 00:42:53;;;;;;;;;;;;;;;17.93;86.07;101806.81;5264466;28;20032;-78
2023/08/11 00:45:25;;;;;;;6.03;4.45;;;;;;;17.73;88.11;101807.34;5263275;28;19908;-79
2023/08/11 00:47:57;;;;;;;6.07;4.80;;;;;;;17.64;88.77;101803.16;5263697;28;20428;-78
2023/08/11 00:50:29;;;;;;;5.00;4.50;;;;;;;17.62;89.18;101794.44;5263645;28;20021;-77
2023/08/11 00:53:01;;;;;;;6.03;5.13;;;;;;;17.55;89.80;101792.84;5263829;28;20124;-78
2023/08/11 00:55:33;;;;;;;8.10;4.63;;;;;;;17.52;90.17;101791.16;5263496;28;20029;-78
2023/08/11 00:58:05;;;;;;;6.32;4.82;;;;;;;17.41;90.40;101787.94;5263503;28;20028;-78
2023/08/11 01:00:38;;;;;;;6.75;4.72;;;;;;;17.49;90.33;101784.19;5263580;28;20033;-78
2023/08/11 01:03:10;;;;;;;6.90;5.00;;;;;;;17.48;90.31;101782.47;5263407;28;20040;-79
2023/08/11 01:05:48;;;;;;;6.57;4.97;;;;;;;17.33;90.52;101780.22;5262935;28;20040;-79
2023/08/11 01:08:38;;;;;;;8.68;5.55;;;;;;;17.34;90.59;101781.97;5263226;28;20021;-80
2023/08/11 01:11:09;;;;;;;7.90;5.50;;;;;;;17.30;90.95;101782.94;5262735;28;20038;-79
2023/08/11 01:13:48;;;;;;;8.57;6.07;;;;;;;17.21;91.25;101777.88;5263254;28;20144;-79
2023/08/11 01:16:22;;;;;;;9.50;6.22;;;;;;;17.18;91.15;101772.69;5263078;28;20126;-79
2023/08/11 01:18:53;;;;;;;8.45;5.85;;;;;;;17.26;91.40;101765.50;5261651;28;20036;-80
2023/08/11 01:21:30;;;;;;;11.03;6.70;;;;;;;17.17;91.05;101771.84;5263294;28;20388;-80
2023/08/11 01:24:02;;;;;;;8.50;6.15;;;;;;;17.23;91.46;101769.06;5262836;28;20484;-79
2023/08/11 01:26:34;;;;;;;;;;;;;;;17.31;89.03;101763.59;5263346;28;20040;-80
2023/08/11 01:29:05;;;;;;;8.85;6.22;;;;;;;17.14;90.93;101764.84;5262850;28;19912;-79
2023/08/11 01:31:36;;;;;;;9.93;6.07;;;;;;;17.02;91.80;101774.84;5261867;28;20121;-79
2023/08/11 01:34:09;;;;;;;7.17;5.97;;;;;;;17.03;91.98;101768.66;5262586;28;20029;-78
2023/08/11 01:36:41;;;;;;;8.05;6.22;;;;;;;16.99;92.34;101762.63;5261912;28;20036;-79
2023/08/11 01:39:13;;;;;;;8.18;6.35;;;;;;;17.04;92.16;101775.69;5262625;28;20067;-78
2023/08/11 01:41:44;;;;;;;11.13;6.67;;;;;;;16.94;92.39;101773.25;5262046;28;20489;-78
2023/08/11 01:44:16;;;;;;;10.27;5.87;;;;;;;16.97;92.32;101777.59;5261353;28;20477;-79
2023/08/11 01:46:50;;;;;;;12.80;6.47;;;;;;;16.89;92.64;101771.66;5262178;28;20094;-79
2023/08/11 01:49:24;;;;;;;12.25;6.55;;;;;;;16.78;93.25;101772.72;5262092;28;20124;-78
2023/08/11 01:51:56;;;;;;;7.75;6.13;;;;;;;16.84;94.11;101770.84;5262723;28;20086;-78
2023/08/11 01:54:29;;;;;;;7.07;6.28;;;;;;;16.78;93.94;101766.59;5262159;28;20045;-78
2023/08/11 01:57:01;;;;;;;10.40;6.93;;;;;;;16.69;94.52;101762.38;5262485;28;20032;-79
2023/08/11 01:59:32;;;;;;;14.30;6.60;;;;;;;16.68;94.95;101765.94;5261526;28;20476;-79
2023/08/11 02:02:04;;;;;;;7.60;6.33;;;;;;;16.67;94.87;101756.28;5262593;28;20040;-78
2023/08/11 02:04:35;;;;;;;12.30;7.90;;;;;;;16.53;94.80;101758.38;5262747;28;20357;-78
2023/08/11 02:07:06;;;;;;;9.17;6.83;;;;;;;16.52;94.92;101754.88;5262333;28;20472;-78
2023/08/11 02:09:38;;;;;;;11.63;7.10;;;;;;;16.50;95.84;101753.16;5262339;28;20037;-78
2023/08/11 02:12:10;;;;;;;8.25;6.53;;;;;;;16.50;96.02;101758.44;5261498;28;20049;-77
2023/08/11 02:14:42;;;;;;;11.10;6.60;;;;;;;16.46;96.13;101752.38;5265098;28;20041;-78
2023/08/11 02:17:13;;;;;;;8.73;7.30;;;;;;;16.31;96.31;101752.69;5262791;28;20071;-79
2023/08/11 02:19:45;;;;;;;7.97;7.10;;;;;;;16.27;96.68;101746.63;5262822;28;20032;-79
2023/08/11 02:22:17;;;;;;;14.15;8.15;;;;;;;16.33;97.19;101746.50;5262470;28;20036;-79
2023/08/11 02:24:48;;;;;;;9.40;7.07;;;;;;;16.30;97.01;101737.81;5260941;28;20040;-78
2023/08/11 02:27:20;;;;;;;10.40;7.30;;;;;;;16.26;97.31;101742.31;5260909;28;20067;-79
2023/08/11 02:29:51;;;;;;;8.87;7.57;;;;;;;16.18;97.19;101745.09;5261809;28;20055;-79
2023/08/11 02:32:22;;;;;;;11.13;7.63;;;;;;;16.16;97.39;101744.22;5261700;28;20037;-79
2023/08/11 02:34:54;;;;;;;10.00;7.33;;;;;;;16.17;97.80;101742.47;5260632;28;20442;-80
2023/08/11 02:37:26;;;;;;;10.90;7.15;;;;;;;16.20;97.91;101750.31;5261820;28;20029;-79
2023/08/11 02:39:57;;;;;;;10.87;7.67;;;;;;;16.20;98.05;101752.94;5262234;28;20036;-79
2023/08/11 02:42:29;;;;;;;11.07;7.60;;;;;;;16.27;98.12;101751.03;5260466;28;20124;-79
2023/08/11 02:45:00;;;;;;;10.87;7.93;;;;;;;15.99;97.96;101755.09;5261987;28;20041;-79
2023/08/11 02:47:31;;;;;;;9.80;8.60;;;;;;;16.00;98.09;101754.22;5260601;28;20051;-79
2023/08/11 02:50:05;;;;;;;9.83;8.27;;;;;;;15.99;98.85;101752.47;5261554;28;20480;-79
2023/08/11 02:52:37;;;;;;;11.10;8.25;;;;;;;15.99;98.86;101757.72;5261794;28;20039;-79
2023/08/11 02:55:09;;;;;;;13.20;8.00;;;;;;;16.01;97.88;101763.81;5261791;28;20033;-78
2023/08/11 02:57:40;;;;;;;10.30;8.10;;;;;;;16.12;97.81;101765.38;5261864;28;20036;-78
2023/08/11 03:00:12;;;;;;;10.67;8.20;;;;;;;15.97;98.74;101758.66;5262207;28;20048;-79
2023/08/11 03:02:47;;;;;;;10.85;8.30;;;;;;;15.94;98.79;101751.72;5262307;28;20086;-81
2023/08/11 03:05:19;;;;;;;10.48;7.93;;;;;;;15.80;99.42;101759.00;5264420;28;20025;-79
2023/08/11 03:07:51;;;;;;;14.80;7.85;;;;;;;15.79;99.58;101755.50;5264694;28;20032;-80
2023/08/11 03:10:22;;;;;;;10.60;8.43;;;;;;;15.79;100.00;101752.88;5266326;28;20040;-78
2023/08/11 03:12:54;;;;;;;13.73;9.80;;;;;;;15.63;100.00;101747.00;5269172;28;20053;-78
2023/08/11 03:15:25;;;;;;;12.00;8.23;;;;;;;15.73;100.00;101742.44;5269993;28;20443;-79
2023/08/11 03:17:57;;;;;;;10.32;8.55;;;;;;;15.82;100.00;101749.31;5269247;28;20111;-80
2023/08/11 03:20:29;;;;;;;10.05;8.32;;;;;;;15.74;100.00;101743.31;5268306;28;20029;-78
2023/08/11 03:23:00;;;;;;;9.60;7.70;;;;;;;15.83;100.00;101744.03;5267215;28;20112;-79
2023/08/11 03:25:31;;;;;;;11.90;8.83;;;;;;;15.77;99.64;101744.13;5264764;28;20037;-80
2023/08/11 03:28:03;;;;;;;10.90;9.07;;;;;;;15.77;100.00;101749.38;5266015;28;20033;-79
2023/08/11 03:30:35;;;;;;;12.15;8.57;;;;;;;15.71;100.00;101740.72;5266436;28;20095;-78
2023/08/11 03:33:06;;;;;;;11.07;9.00;;;;;;;15.67;100.00;101740.78;5266819;28;20021;-80
2023/08/11 03:35:38;;;;;;;11.57;8.20;;;;;;;15.55;100.00;101746.25;5265817;28;20037;-79
2023/08/11 03:38:09;;;;;;;12.10;8.87;;;;;;;15.59;100.00;101732.19;5263915;28;20396;-79
2023/08/11 03:40:40;;;;;;;10.77;9.03;;;;;;;15.54;100.00;101741.91;5264713;28;20033;-79
2023/08/11 03:43:12;;;;;;;15.63;9.90;;;;;;;15.53;100.00;101750.69;5265478;28;20076;-80
2023/08/11 03:45:43;;;;;;;11.40;9.47;;;;;;;15.49;100.00;101741.13;5264973;28;20039;-78
2023/08/11 03:48:15;;;;;;;10.63;9.53;;;;;;;15.44;100.00;101735.06;5264489;28;20029;-79
2023/08/11 03:50:46;;;;;;;12.30;10.20;;;;;;;15.40;100.00;101734.25;5264687;28;20033;-79
2023/08/11 03:53:17;;;;;;;10.63;9.57;;;;;;;15.39;100.00;101734.28;5264351;28;20028;-79
2023/08/11 03:55:49;;;;;;;10.33;9.27;;;;;;;15.28;100.00;101737.13;5264683;28;20035;-78
2023/08/11 03:58:23;;;;;;;11.27;9.40;;;;;;;15.41;100.00;101737.78;5264678;28;20028;-80
2023/08/11 04:00:55;;;;;;;12.70;10.57;;;;;;;15.37;100.00;101734.31;5264427;28;20108;-79
2023/08/11 04:03:30;;;;;;;12.33;9.77;;;;;;;15.30;100.00;101733.56;5264426;28;20116;-79
2023/08/11 04:06:02;;;;;;;12.35;9.55;;;;;;;15.28;100.00;101734.50;5264680;28;20124;-78
2023/08/11 04:08:33;;;;;;;13.43;9.63;;;;;;;15.30;100.00;101735.34;5264560;28;20116;-79
2023/08/11 04:11:05;;;;;;;12.90;10.77;;;;;;;15.36;100.00;101740.47;5262890;28;20045;-80
2023/08/11 04:13:36;;;;;;;13.00;9.77;;;;;;;15.28;100.00;101737.97;5264196;28;20480;-80
2023/08/11 04:16:09;;;;;;;11.57;10.37;;;;;;;15.31;100.00;101734.41;5264482;28;20044;-80
2023/08/11 04:18:40;;;;;;;14.52;11.05;;;;;;;15.36;100.00;101742.22;5264350;28;20491;-80
2023/08/11 04:21:12;;;;;;;11.10;9.33;;;;;;;15.36;100.00;101740.47;5263640;28;20037;-79
2023/08/11 04:23:43;;;;;;;11.27;9.47;;;;;;;15.32;100.00;101733.53;5264173;28;20094;-79
2023/08/11 04:26:15;;;;;;;12.00;9.83;;;;;;;15.36;100.00;101743.13;5263944;28;20429;-80
2023/08/11 04:28:46;;;;;;;9.83;8.90;;;;;;;15.30;100.00;101740.59;5262541;28;20037;-78
2023/08/11 04:31:17;;;;;;;11.73;9.70;;;;;;;15.30;100.00;101737.97;5262508;28;20036;-79
2023/08/11 04:33:49;;;;;;;16.00;10.60;;;;;;;15.29;100.00;101738.84;5262776;28;20464;-80
2023/08/11 04:36:20;;;;;;;12.27;9.67;;;;;;;15.35;100.00;101737.88;5264194;28;20031;-79
2023/08/11 04:38:52;;;;;;;13.20;10.33;;;;;;;15.29;100.00;101739.72;5264606;28;20082;-80
2023/08/11 04:41:24;;;;;;;11.23;9.88;;;;;;;15.26;100.00;101742.41;5264358;28;20036;-79
2023/08/11 04:43:55;;;;;;;15.53;10.33;;;;;;;15.25;100.00;101739.81;5264434;28;20110;-79
2023/08/11 04:46:26;;;;;;;14.80;11.40;;;;;;;15.22;100.00;101732.81;5264416;28;20112;-78
2023/08/11 04:48:58;;;;;;;13.37;11.67;;;;;;;15.32;100.00;101729.13;5263747;28;20073;-79
2023/08/11 04:51:29;;;;;;;14.80;11.03;;;;;;;15.29;100.00;101730.97;5264024;28;20040;-79
2023/08/11 04:54:02;;;;;;;14.20;11.63;;;;;;;15.29;100.00;101726.59;5264541;28;20037;-79
2023/08/11 04:56:34;;;;;;;15.32;11.43;;;;;;;15.29;100.00;101718.72;5264755;28;20033;-80
2023/08/11 04:59:05;;;;;;;14.63;11.90;;;;;;;15.42;100.00;101713.22;5263549;28;20043;-80
2023/08/11 05:01:37;;;;;;;18.30;11.60;;;;;;;15.36;100.00;101721.22;5263379;28;20029;-80
2023/08/11 05:04:08;;;;;;;14.33;12.03;;;;;;;15.41;100.00;101715.00;5263326;28;20037;-79
2023/08/11 05:06:40;;;;;;;13.70;10.93;;;;;;;15.44;100.00;101712.31;5262268;28;20021;-80
2023/08/11 05:09:11;;;;;;;14.90;11.37;;;;;;;15.47;100.00;101714.00;5263599;28;20029;-80
2023/08/11 05:11:43;;;;;;;17.53;11.57;;;;;;;15.51;100.00;101710.44;5261695;28;20033;-79
2023/08/11 05:14:15;;;;;;;15.23;10.87;;;;;;;15.52;100.00;101712.19;5262846;28;20053;-79
2023/08/11 05:16:47;;;;;;;;;;;;;;;15.60;100.00;101712.91;5263937;28;20465;-79
2023/08/11 05:19:18;;;;;;;15.60;11.18;;;;;;;15.59;100.00;101716.41;5263894;28;20003;-79
2023/08/11 05:21:50;;;;;;;13.90;10.67;;;;;;;15.65;100.00;101712.81;5264467;28;20025;-78
2023/08/11 05:24:21;;;;;;;13.57;10.20;;;;;;;15.76;100.00;101712.59;5265506;28;20115;-78
2023/08/11 05:26:53;;;;;;;16.50;10.43;;;;;;;15.80;100.00;101714.31;5265796;28;20037;-79
2023/08/11 05:29:24;;;;;;;13.43;10.70;;;;;;;15.83;100.00;101714.25;5265940;28;20033;-79
2023/08/11 05:31:56;;;;;;;14.90;11.00;;;;;;;15.92;100.00;101707.91;5266528;28;20056;-78
2023/08/11 05:34:27;;;;;;;14.77;10.90;;;;;;;15.95;100.00;101706.09;5267358;28;20036;-78
2023/08/11 05:36:58;;;;;;;17.53;10.93;;;;;;;15.98;100.00;101706.03;5264914;28;20041;-78
2023/08/11 05:39:30;;;;;;;16.30;10.80;;;;;;;16.02;100.00;101705.09;5264695;28;20049;-78
2023/08/11 05:42:01;;;;;;;12.50;9.60;;;;;;;16.12;99.63;101702.25;5264429;28;20044;-78
2023/08/11 05:44:33;;;;;;;13.77;9.53;;;;;;;16.17;99.51;101711.78;5265052;28;20081;-79
2023/08/11 05:47:05;;;;;;;17.67;9.43;;;;;;;16.25;99.17;101711.63;5265317;28;20459;-80
2023/08/11 05:49:36;;;;;;;18.73;9.33;;;;;;;16.32;98.84;101710.56;5266172;28;20275;-80
2023/08/11 05:52:11;;;;;;;12.87;9.37;;;;;;;16.40;98.93;101708.66;5266503;28;20029;-79
2023/08/11 05:54:42;;;;;;;13.65;9.70;;;;;;;16.53;98.18;101711.84;5265837;28;20028;-79
2023/08/11 05:57:13;;;;;;;15.20;9.37;;;;;;;16.52;98.43;101709.28;5267870;28;20163;-78
2023/08/11 05:59:45;;;;;;;11.67;8.90;;;;;;;16.68;98.19;101709.75;5266185;28;20029;-80
2023/08/11 06:02:16;;;;;;;12.90;9.00;;;;;;;16.75;98.55;101704.31;5264945;28;20032;-78
2023/08/11 06:04:49;;;;;;;13.77;8.83;;;;;;;16.89;97.12;101708.44;5265027;28;20083;-78
2023/08/11 06:07:21;;;;;;;12.98;8.18;;;;;;;16.97;96.96;101714.38;5265938;28;20163;-78
2023/08/11 06:09:53;;;;;;;17.53;9.27;;;;;;;17.06;95.63;101715.91;5264328;28;20067;-79
2023/08/11 06:12:25;;;;;;;13.97;9.40;;;;;;;17.16;95.36;101712.13;5263042;28;20048;-77
2023/08/11 06:14:56;;;;;;;18.08;9.85;;;;;;;17.25;94.80;101701.34;5263190;28;20031;-79
2023/08/11 06:17:27;;;;;;;18.40;9.00;;;;;;;17.40;93.92;101710.63;5262556;28;20041;-78
2023/08/11 06:20:00;;;;;;;10.50;8.40;;;;;;;17.45;93.35;101710.50;5263117;28;20025;-78
2023/08/11 06:22:32;;;;;;;12.68;7.53;;;;;;;17.56;92.41;101708.44;5245264;28;20041;-77
2023/08/11 06:25:03;;;;;;;9.00;7.47;;;;;;;17.66;91.93;101715.22;5262188;28;20443;-80
2023/08/11 06:27:35;;;;;;;13.88;7.72;;;;;;;17.77;92.07;101714.03;5263429;28;20029;-82
2023/08/11 06:30:07;;;;;;;10.73;6.73;;;;;;;17.83;91.98;101711.22;5264822;28;20455;-82
2023/08/11 06:32:39;;;;;;;13.13;6.65;;;;;;;17.91;90.74;101714.53;5264871;28;20039;-80
2023/08/11 06:35:10;;;;;;;15.57;7.83;;;;;;;17.97;90.67;101718.81;5263017;28;20108;-81
2023/08/11 06:37:42;;;;;;;11.97;7.23;;;;;;;18.08;89.27;101719.34;5261716;28;20052;-82
2023/08/11 06:40:13;;;;;;;12.33;6.97;;;;;;;18.17;89.70;101721.69;5263516;28;20031;-82
2023/08/11 06:42:45;;;;;;;12.07;6.40;;;;;;;18.28;89.30;101720.53;5261393;28;20056;-81
2023/08/11 06:45:17;;;;;;;11.60;7.23;;;;;;;18.33;89.74;101724.75;5266355;28;20126;-82
2023/08/11 06:47:48;;;;;;;13.38;6.68;;;;;;;18.50;87.46;101726.88;5267389;28;20090;-82
2023/08/11 06:50:19;;;;;;;10.17;6.77;;;;;;;18.58;86.00;101730.13;5268327;28;20047;-82
2023/08/11 06:52:51;;;;;;;11.10;7.30;;;;;;;18.65;84.44;101732.59;5267609;28;20056;-82
2023/08/11 06:55:22;;;;;;;11.57;6.85;;;;;;;18.72;85.01;101732.34;5266277;28;20029;-82
2023/08/11 06:57:54;;;;;;;9.83;6.60;;;;;;;18.85;83.45;101732.88;5265968;28;20035;-82
2023/08/11 07:00:26;;;;;;;12.30;7.10;;;;;;;18.99;83.19;101742.09;5267224;28;20068;-82
2023/08/11 07:02:57;;;;;;;10.60;6.30;;;;;;;19.08;84.63;101739.16;5269365;28;20393;-81
2023/08/11 07:05:29;;;;;;;8.23;6.00;;;;;;;19.24;81.77;101735.09;5268472;28;20055;-79
2023/08/11 07:08:00;;;;;;;10.20;6.07;;;;;;;19.40;79.69;101734.53;5268972;28;20079;-82
2023/08/11 07:10:33;;;;;;;11.23;5.18;;;;;;;19.53;79.68;101738.50;5266800;28;20025;-79
2023/08/11 07:13:06;;;;;;;10.07;5.43;;;;;;;19.72;79.25;101740.47;5265804;28;20406;-81
2023/08/11 07:15:42;;;;;;;7.32;5.20;;;;;;;19.78;79.54;101735.88;5264986;28;20507;-82
2023/08/11 07:18:13;;;;;;;10.23;5.22;;;;;;;19.90;77.79;101741.63;5266059;28;20036;-83
2023/08/11 07:20:45;;;;;;;11.57;5.47;;;;;;;20.09;76.69;101744.47;5267246;28;20025;-83
2023/08/11 07:23:16;;;;;;;7.33;4.57;;;;;;;20.20;75.64;101736.97;5266314;28;20124;-81
2023/08/11 07:25:47;;;;;;;8.87;5.07;;;;;;;20.28;75.23;101739.34;5265299;28;20036;-81
2023/08/11 07:28:19;;;;;;;6.53;4.67;;;;;;;20.36;75.39;101745.19;5264267;28;20155;-82
2023/08/11 07:30:51;;;;;;;7.93;4.10;;;;;;;20.42;75.01;101744.13;5265589;28;20036;-84
2023/08/11 07:33:22;;;;;;;13.35;6.50;;;;;;;20.60;75.07;101756.63;5266191;28;20064;-83
2023/08/11 07:35:54;;;;;;;11.17;5.33;;;;;;;20.72;73.04;101752.66;5266922;28;20072;-83
2023/08/11 07:38:25;;;;;;;11.03;4.80;;;;;;;20.82;73.17;101750.47;5269726;28;20025;-82
2023/08/11 07:40:56;;;;;;;9.33;5.20;;;;;;;20.93;70.96;101746.50;5268840;28;20037;-79
2023/08/11 07:43:28;;;;;;;10.07;4.57;;;;;;;21.13;71.94;101745.66;5269317;28;20108;-79
2023/08/11 07:45:59;;;;;;;8.70;4.47;;;;;;;21.24;72.01;101747.84;5266765;28;20120;-79
2023/08/11 07:48:31;;;;;;;9.83;4.23;;;;;;;21.38;69.09;101755.25;5266077;28;20033;-80
2023/08/11 07:51:02;;;;;;;6.32;4.30;;;;;;;21.47;70.04;101754.81;5264764;28;20098;-80
2023/08/11 07:53:35;;;;;;;8.75;3.88;;;;;;;21.54;68.79;101757.25;5265149;28;20040;-81
2023/08/11 07:56:06;;;;;;;;;;;;;;;21.66;71.02;101752.25;5255088;28;20033;-80
2023/08/11 07:58:39;;;;;;;9.57;4.70;;;;;;;21.74;67.71;101761.69;5264098;28;19924;-80
2023/08/11 08:01:10;;;;;;;7.78;4.25;;;;;;;21.89;67.15;101755.69;5263851;28;20055;-81
2023/08/11 08:03:42;;;;;;;6.75;4.60;;;;;;;21.98;65.64;101749.97;5262736;28;20497;-80
2023/08/11 08:06:14;;;;;;;7.03;4.80;;;;;;;22.09;64.64;101762.75;5258421;28;20294;-81
2023/08/11 08:08:45;;;;;;;6.90;4.53;;;;;;;22.23;64.69;101756.78;5262431;28;20460;-80
2023/08/11 08:11:17;;;;;;;10.60;4.80;;;;;;;22.18;63.86;101757.00;5261771;28;20171;-80
2023/08/11 08:13:49;;;;;;;10.48;3.80;;;;;;;22.33;63.83;101754.59;5262378;28;20052;-79
2023/08/11 08:16:20;;;;;;;12.82;4.22;;;;;;;22.43;63.42;101753.25;5262842;28;20053;-80
2023/08/11 08:18:51;;;;;;;6.40;3.73;;;;;;;22.53;63.16;101745.72;5263737;28;20506;-77
2023/08/11 08:21:23;;;;;;;6.33;3.87;;;;;;;22.56;61.56;101738.44;5261519;28;20267;-78
2023/08/11 08:23:54;;;;;;;6.50;3.63;;;;;;;22.71;64.60;101739.47;5263450;28;20032;-78
2023/08/11 08:26:26;;;;;;;9.80;4.03;;;;;;;22.93;64.31;101749.94;5262592;28;20124;-78
2023/08/11 08:28:58;;;;;;;8.17;3.63;;;;;;;23.01;61.78;101751.38;5261707;28;20033;-79
2023/08/11 08:31:29;;;;;;;7.88;3.53;;;;;;;23.01;60.06;101757.53;5262694;28;20472;-78
2023/08/11 08:34:01;;;;;;;10.45;4.20;;;;;;;23.21;60.38;101753.88;5263479;28;20162;-77
2023/08/11 08:36:32;;;;;;;9.20;4.00;;;;;;;23.36;60.21;101756.72;5260983;28;20068;-78
2023/08/11 08:39:04;;;;;;;8.13;3.70;;;;;;;23.39;60.77;101756.56;5264298;28;20085;-77
2023/08/11 08:41:38;;;;;;;5.13;3.90;;;;;;;23.41;60.79;101766.19;5257264;28;20178;-77
2023/08/11 08:44:10;;;;;;;7.55;3.47;;;;;;;23.63;59.14;101762.41;5263086;28;20033;-76
2023/08/11 08:46:42;;;;;;;6.72;3.85;;;;;;;23.64;61.86;101758.81;5262196;28;20492;-77
2023/08/11 08:49:24;;;;;;;6.43;3.60;;;;;;;23.81;59.68;101749.91;5260266;28;20033;-77
2023/08/11 08:51:57;;;;;;;6.63;3.60;;;;;;;23.96;60.48;101749.13;5261013;28;20028;-77
2023/08/11 08:54:28;;;;;;;;;;;;;;;24.12;60.34;101751.84;5263409;28;20036;-76
2023/08/11 08:57:02;;;;;;;5.77;3.43;;;;;;;24.14;59.01;101741.09;5261193;28;20062;-78
2023/08/11 08:59:33;;;;;;;11.02;3.20;;;;;;;24.47;59.93;101750.81;5272077;28;20116;-76
2023/08/11 09:02:06;;;;;;;6.77;3.57;;;;;;;24.56;56.23;101745.84;5274471;28;20033;-76
2023/08/11 09:04:39;;;;;;;6.60;3.35;;;;;;;24.71;58.85;101756.59;5263284;28;20032;-77
2023/08/11 09:07:11;;;;;;;5.22;3.10;;;;;;;24.82;56.31;101754.16;5261941;28;20061;-78
2023/08/11 09:09:42;;;;;;;5.93;3.75;;;;;;;25.01;55.97;101753.97;5261674;28;20120;-78
2023/08/11 09:12:14;;;;;;;7.13;3.17;;;;;;;25.15;55.75;101753.16;5261656;28;20128;-77
2023/08/11 09:14:45;;;;;;;6.05;3.47;;;;;;;25.27;57.62;101754.25;5261300;28;20488;-76
2023/08/11 09:17:16;;;;;;;4.83;3.07;;;;;;;25.41;55.09;101758.78;5262113;28;20048;-79
2023/08/11 09:19:50;;;;;;;4.60;3.20;;;;;;;25.35;54.02;101752.00;5262720;28;20260;-77
2023/08/11 09:22:25;;;;;;;7.65;3.90;;;;;;;25.51;53.92;101746.59;5262503;28;20119;-76
2023/08/11 09:24:57;;;;;;;5.72;3.40;;;;;;;25.51;55.09;101745.75;5263021;28;20491;-74
2023/08/11 09:27:29;;;;;;;5.63;3.50;;;;;;;25.75;55.05;101740.72;5262080;28;20033;-74
2023/08/11 09:30:01;;;;;;;5.05;3.03;;;;;;;25.97;52.90;101743.78;5260713;28;20037;-77
2023/08/11 09:32:33;;;;;;;7.78;3.20;;;;;;;26.30;53.21;101737.25;5262180;28;20090;-77
2023/08/11 09:35:12;;;;;;;7.50;3.35;;;;;;;26.50;50.09;101745.78;5263696;28;20075;-76
2023/08/11 09:37:43;;;;;;;10.52;3.85;;;;;;;26.73;50.81;101745.19;5261027;28;20041;-76
2023/08/11 09:40:16;;;;;;;4.95;3.08;;;;;;;27.07;50.38;101750.09;5262716;28;20036;-79
2023/08/11 09:42:48;;;;;;;8.13;3.20;;;;;;;27.20;48.65;101737.59;5261758;28;20108;-79
2023/08/11 09:45:21;;;;;;;6.57;3.13;;;;;;;27.31;49.56;101736.00;5261862;28;20116;-78
2023/08/11 09:47:52;;;;;;;5.05;2.80;;;;;;;27.52;48.99;101733.69;5262008;28;20465;-79
2023/08/11 09:50:29;;;;;;;5.50;2.90;;;;;;;28.27;47.93;101732.84;5262940;28;20035;-78
2023/08/11 09:53:04;;;;;;;3.85;2.80;;;;;;;29.05;43.74;101745.84;5262028;28;20029;-77
2023/08/11 09:55:39;;;;;;;5.15;2.53;;;;;;;29.33;42.88;101743.72;5261357;28;20036;-78
2023/08/11 09:58:13;;;;;;;4.22;2.50;;;;;;;30.03;40.47;101736.50;5261932;28;20115;-78
2023/08/11 10:00:47;;;;;;;6.82;3.08;;;;;;;30.68;39.82;101736.59;5261418;28;20029;-78
2023/08/11 10:03:26;;;;;;;5.32;2.63;;;;;;;31.29;39.71;101735.13;5262597;28;20528;-79
2023/08/11 10:06:01;;;;;;;5.43;2.70;;;;;;;31.98;37.34;101740.72;5261928;28;20195;-78
2023/08/11 10:08:34;;;;;;;7.85;3.15;;;;;;;31.80;38.50;101750.47;5262223;28;20033;-80
2023/08/11 10:11:06;;;;;;;4.78;2.83;;;;;;;31.62;35.96;101750.22;5261527;28;20484;-78
2023/08/11 10:13:39;;;;;;;5.75;2.80;;;;;;;31.58;36.61;101746.09;5279040;28;20024;-79
2023/08/11 10:16:12;;;;;;;6.65;3.13;;;;;;;31.68;37.39;101746.97;5264448;28;20060;-78
2023/08/11 10:18:45;;;;;;;5.60;2.97;;;;;;;32.11;36.32;101734.28;5274218;28;20035;-78
2023/08/11 10:21:17;;;;;;;6.90;2.75;;;;;;;32.68;35.70;101739.91;5277158;28;20052;-79
2023/08/11 10:23:49;;;;;;;5.53;2.70;;;;;;;33.08;34.09;101738.91;5269970;28;20117;-78
2023/08/11 10:26:22;;;;;;;4.03;2.58;;;;;;;32.19;33.53;101744.38;5266612;28;20123;-81
2023/08/11 10:28:54;;;;;;;5.60;2.40;;;;;;;32.59;34.76;101736.19;5266016;28;20480;-79
2023/08/11 10:31:31;;;;;;;3.30;2.22;;;;;;;33.18;34.11;101744.31;5266160;28;20151;-80
2023/08/11 10:34:08;;;;;;;4.93;2.70;;;;;;;33.73;34.29;101738.19;5262573;28;20025;-80
2023/08/11 10:36:39;;;;;;;10.80;2.33;;;;;;;33.52;32.42;101738.41;5262920;28;20047;-79
2023/08/11 10:39:17;;;;;;;3.10;2.35;;;;;;;34.01;31.94;101744.47;5265936;28;20025;-78
2023/08/11 10:41:49;;;;;;;2.38;2.17;;;;;;;34.31;32.72;101731.66;5264608;28;20021;-79
2023/08/11 10:44:27;;;;;;;3.28;2.35;;;;;;;34.33;31.51;101735.06;5266316;28;20029;-80
2023/08/11 10:47:03;;;;;;;3.47;2.50;;;;;;;34.76;31.51;101730.78;5278729;28;20043;-81
2023/08/11 10:49:40;;;;;;;4.80;2.70;;;;;;;35.26;30.52;101732.03;5266402;28;20479;-80
2023/08/11 10:52:12;;;;;;;6.53;3.03;;;;;;;34.95;30.76;101732.44;5264715;28;20079;-79
2023/08/11 10:54:51;;;;;;;4.00;2.75;;;;;;;34.59;31.25;101735.16;5266127;28;20083;-78
2023/08/11 10:57:23;;;;;;;3.33;2.25;;;;;;;34.78;32.05;101733.31;5265896;28;20040;-80
2023/08/11 10:59:54;;;;;;;6.30;2.40;;;;;;;35.13;30.39;101731.56;5265942;28;20025;-79
2023/08/11 11:02:25;;;;;;;3.85;2.40;;;;;;;34.86;29.93;101728.81;5265155;28;20059;-80
2023/08/11 11:05:00;;;;;;;3.05;2.40;;;;;;;34.49;31.79;101721.69;5266221;28;20037;-80
2023/08/11 11:07:38;;;;;;;5.47;2.75;;;;;;;35.49;30.56;101718.78;5263832;28;20032;-80
2023/08/11 11:10:10;;;;;;;3.40;2.20;;;;;;;36.25;28.82;101729.81;5265787;28;20083;-81
2023/08/11 11:12:41;;;;;;;3.72;2.28;;;;;;;36.14;29.61;101723.63;5264976;28;20032;-81
2023/08/11 11:15:12;;;;;;;9.43;2.80;;;;;;;37.00;27.88;101728.84;5265373;28;20064;-79
2023/08/11 11:17:44;;;;;;;4.95;2.72;;;;;;;36.47;27.73;101723.72;5265037;28;20033;-80
2023/08/11 11:20:16;;;;;;;3.60;2.35;;;;;;;36.56;28.54;101727.28;5265917;28;20060;-79
2023/08/11 11:22:49;;;;;;;4.45;2.33;;;;;;;37.78;26.90;101731.94;5264854;28;20028;-79
2023/08/11 11:25:21;;;;;;;3.88;2.67;;;;;;;37.90;26.23;101727.78;5265352;28;20476;-79
2023/08/11 11:27:52;;;;;;;5.32;2.95;;;;;;;37.47;27.43;101721.84;5264655;28;20055;-81
2023/08/11 11:30:24;;;;;;;7.15;2.20;;;;;;;37.10;27.82;101731.41;5266501;28;20037;-81
2023/08/11 11:32:56;;;;;;;6.65;2.30;;;;;;;36.36;29.45;101726.78;5268296;28;20047;-79
2023/08/11 11:35:29;;;;;;;5.15;3.00;;;;;;;36.69;27.70;101724.94;5284562;28;20017;-78
2023/08/11 11:38:01;;;;;;;4.82;2.70;;;;;;;37.09;28.86;101732.41;5281402;28;20366;-79
2023/08/11 11:40:32;;;;;;;2.97;2.50;;;;;;;37.95;28.31;101706.34;5265880;28;20033;-79
2023/08/11 11:43:04;;;;;;;9.98;2.78;;;;;;;36.71;27.66;101716.63;5264557;28;20033;-79